createdAt,value
2018-01-14T00:00:04.994Z,-0.90
2018-01-14T00:01:05.043Z,-0.90
2018-01-14T00:02:05.285Z,-0.90
2018-01-14T00:03:05.425Z,-0.90
2018-01-14T00:04:05.148Z,-0.90
2018-01-14T00:05:04.714Z,-0.90
2018-01-14T00:06:04.751Z,-0.90
2018-01-14T00:07:05.330Z,-0.90
2018-01-14T00:08:05.467Z,-0.90
2018-01-14T00:09:05.252Z,-0.90
2018-01-14T00:10:04.727Z,-0.90
2018-01-14T00:11:05.183Z,-0.90
2018-01-14T00:12:05.475Z,-0.90
2018-01-14T00:13:05.606Z,-0.90
2018-01-14T00:14:04.806Z,-0.90
2018-01-14T00:15:05.709Z,-0.90
2018-01-14T00:16:05.598Z,-0.90
2018-01-14T00:17:05.443Z,-0.90
2018-01-14T00:18:04.715Z,-0.90
2018-01-14T00:19:04.984Z,-0.90
2018-01-14T00:20:05.468Z,-0.90
2018-01-14T00:21:05.026Z,-0.90
2018-01-14T00:22:05.068Z,-0.90
2018-01-14T00:23:05.199Z,-1.00
2018-01-14T00:24:05.231Z,-0.90
2018-01-14T00:25:05.228Z,-1.00
2018-01-14T00:26:04.865Z,-1.00
2018-01-14T00:27:04.919Z,-1.00
2018-01-14T00:28:04.954Z,-1.00
2018-01-14T00:29:04.828Z,-1.00
2018-01-14T00:30:04.630Z,-1.00
2018-01-14T00:31:05.733Z,-1.00
2018-01-14T00:32:04.913Z,-1.00
2018-01-14T00:33:04.744Z,-1.00
2018-01-14T00:34:05.616Z,-1.00
2018-01-14T00:35:04.849Z,-1.00
2018-01-14T00:36:04.956Z,-1.00
2018-01-14T00:37:04.948Z,-1.00
2018-01-14T00:38:04.902Z,-1.00
2018-01-14T00:39:05.428Z,-1.00
2018-01-14T00:40:05.070Z,-1.00
2018-01-14T00:41:05.121Z,-1.00
2018-01-14T00:42:04.682Z,-1.00
2018-01-14T00:43:05.401Z,-1.00
2018-01-14T00:44:05.024Z,-1.00
2018-01-14T00:45:05.013Z,-1.00
2018-01-14T00:46:04.948Z,-1.00
2018-01-14T00:47:05.344Z,-1.00
2018-01-14T00:48:05.514Z,-1.00
2018-01-14T00:49:05.257Z,-1.00
2018-01-14T00:50:04.652Z,-1.00
2018-01-14T00:51:05.326Z,-1.00
2018-01-14T00:52:05.403Z,-1.00
2018-01-14T00:53:04.945Z,-1.00
2018-01-14T00:54:04.682Z,-1.00
2018-01-14T00:55:05.598Z,-1.00
2018-01-14T00:56:04.922Z,-1.00
2018-01-14T00:57:05.040Z,-1.00
2018-01-14T00:58:04.717Z,-1.00
2018-01-14T00:59:05.175Z,-1.00
2018-01-14T01:00:04.874Z,-1.00
2018-01-14T01:01:05.605Z,-1.00
2018-01-14T01:02:05.460Z,-1.00
2018-01-14T01:03:04.793Z,-1.00
2018-01-14T01:04:04.708Z,-1.00
2018-01-14T01:05:05.386Z,-1.10
2018-01-14T01:06:04.935Z,-1.10
2018-01-14T01:07:05.218Z,-1.10
2018-01-14T01:08:05.263Z,-1.10
2018-01-14T01:09:05.001Z,-1.10
2018-01-14T01:10:05.046Z,-1.10
2018-01-14T01:11:04.891Z,-1.10
2018-01-14T01:12:04.912Z,-1.10
2018-01-14T01:13:05.022Z,-1.10
2018-01-14T01:14:05.592Z,-1.00
2018-01-14T01:15:04.651Z,-1.10
2018-01-14T01:16:04.665Z,-1.10
2018-01-14T01:17:05.643Z,-1.10
2018-01-14T01:18:05.338Z,-1.10
2018-01-14T01:19:05.370Z,-1.10
2018-01-14T01:20:04.926Z,-1.10
2018-01-14T01:21:05.457Z,-1.10
2018-01-14T01:22:05.084Z,-1.00
2018-01-14T01:23:04.830Z,-1.10
2018-01-14T01:24:04.909Z,-1.10
2018-01-14T01:25:04.959Z,-1.10
2018-01-14T01:26:05.050Z,-1.10
2018-01-14T01:27:04.719Z,-1.10
2018-01-14T01:28:05.413Z,-1.10
2018-01-14T01:29:04.889Z,-1.10
2018-01-14T01:30:05.627Z,-1.10
2018-01-14T01:31:05.237Z,-1.00
2018-01-14T01:32:05.157Z,-1.00
2018-01-14T01:33:04.779Z,-1.10
2018-01-14T01:34:04.821Z,-1.10
2018-01-14T01:35:04.752Z,-1.10
2018-01-14T01:36:05.421Z,-1.10
2018-01-14T01:37:05.317Z,-1.00
2018-01-14T01:38:05.100Z,-1.10
2018-01-14T01:39:04.819Z,-1.00
2018-01-14T01:40:04.689Z,-1.00
2018-01-14T01:41:05.453Z,-1.00
2018-01-14T01:42:05.173Z,-1.10
2018-01-14T01:43:05.251Z,-1.00
2018-01-14T01:44:05.289Z,-1.00
2018-01-14T01:45:05.341Z,-1.10
2018-01-14T01:46:05.193Z,-1.00
2018-01-14T01:47:04.855Z,-1.00
2018-01-14T01:48:04.597Z,-1.00
2018-01-14T01:49:05.407Z,-1.00
2018-01-14T01:50:05.254Z,-1.00
2018-01-14T01:51:05.008Z,-1.00
2018-01-14T01:52:04.690Z,-1.00
2018-01-14T01:53:05.331Z,-1.00
2018-01-14T01:54:05.583Z,-1.00
2018-01-14T01:55:05.563Z,-1.00
2018-01-14T01:56:04.688Z,-1.00
2018-01-14T01:57:05.292Z,-1.00
2018-01-14T01:58:05.394Z,-1.00
2018-01-14T01:59:05.629Z,-1.00
2018-01-14T02:00:04.764Z,-1.00
2018-01-14T02:01:04.645Z,-1.00
2018-01-14T02:02:05.382Z,-1.00
2018-01-14T02:03:05.541Z,-1.00
2018-01-14T02:04:05.086Z,-1.00
2018-01-14T02:05:04.814Z,-1.00
2018-01-14T02:06:04.608Z,-1.00
2018-01-14T02:07:05.186Z,-1.00
2018-01-14T02:08:05.037Z,-1.00
2018-01-14T02:09:05.670Z,-1.00
2018-01-14T02:10:05.133Z,-1.00
2018-01-14T02:11:04.695Z,-1.00
2018-01-14T02:12:05.393Z,-1.00
2018-01-14T02:13:04.653Z,-1.00
2018-01-14T02:14:05.462Z,-1.00
2018-01-14T02:15:05.095Z,-1.00
2018-01-14T02:16:05.029Z,-1.00
2018-01-14T02:17:04.783Z,-1.00
2018-01-14T02:18:05.083Z,-1.00
2018-01-14T02:19:05.141Z,-1.00
2018-01-14T02:20:05.027Z,-1.00
2018-01-14T02:21:05.012Z,-1.00
2018-01-14T02:22:04.749Z,-1.00
2018-01-14T02:23:05.415Z,-1.00
2018-01-14T02:24:05.568Z,-1.00
2018-01-14T02:25:04.970Z,-1.00
2018-01-14T02:26:05.473Z,-1.00
2018-01-14T02:27:05.294Z,-1.00
2018-01-14T02:28:05.095Z,-1.00
2018-01-14T02:29:05.322Z,-1.00
2018-01-14T02:30:04.713Z,-1.00
2018-01-14T02:31:04.712Z,-1.00
2018-01-14T02:32:04.751Z,-1.00
2018-01-14T02:33:05.569Z,-1.00
2018-01-14T02:34:05.485Z,-1.00
2018-01-14T02:35:05.166Z,-1.00
2018-01-14T02:36:04.881Z,-1.00
2018-01-14T02:37:05.100Z,-1.00
2018-01-14T02:38:04.878Z,-1.00
2018-01-14T02:39:05.726Z,-1.00
2018-01-14T02:40:05.570Z,-1.00
2018-01-14T02:41:05.187Z,-1.00
2018-01-14T02:42:05.326Z,-1.00
2018-01-14T02:43:05.132Z,-1.00
2018-01-14T02:44:05.089Z,-1.00
2018-01-14T02:45:04.945Z,-1.00
2018-01-14T02:46:04.950Z,-1.00
2018-01-14T02:47:04.712Z,-1.00
2018-01-14T02:48:05.331Z,-1.00
2018-01-14T02:49:05.630Z,-1.00
2018-01-14T02:50:05.432Z,-1.00
2018-01-14T02:51:04.984Z,-1.00
2018-01-14T02:52:05.448Z,-1.00
2018-01-14T02:53:04.929Z,-1.00
2018-01-14T02:54:05.558Z,-1.00
2018-01-14T02:55:05.260Z,-1.00
2018-01-14T02:56:05.204Z,-1.00
2018-01-14T02:57:05.449Z,-1.00
2018-01-14T02:58:04.667Z,-1.00
2018-01-14T02:59:05.515Z,-1.00
2018-01-14T03:00:05.437Z,-1.00
2018-01-14T03:01:05.095Z,-1.00
2018-01-14T03:02:05.505Z,-1.00
2018-01-14T03:03:05.312Z,-1.00
2018-01-14T03:04:05.474Z,-1.00
2018-01-14T03:05:05.153Z,-1.00
2018-01-14T03:06:05.085Z,-0.90
2018-01-14T03:07:04.815Z,-0.90
2018-01-14T03:08:04.603Z,-0.90
2018-01-14T03:09:05.423Z,-1.00
2018-01-14T03:10:04.683Z,-0.90
2018-01-14T03:11:05.269Z,-0.90
2018-01-14T03:12:04.972Z,-0.90
2018-01-14T03:13:05.124Z,-0.90
2018-01-14T03:14:04.689Z,-0.90
2018-01-14T03:15:05.401Z,-0.90
2018-01-14T03:16:05.301Z,-0.90
2018-01-14T03:17:05.398Z,-0.90
2018-01-14T03:18:05.191Z,-0.90
2018-01-14T03:19:04.664Z,-0.90
2018-01-14T03:20:05.609Z,-0.90
2018-01-14T03:21:05.200Z,-0.90
2018-01-14T03:22:04.982Z,-0.90
2018-01-14T03:23:05.325Z,-0.90
2018-01-14T03:24:04.893Z,-0.90
2018-01-14T03:25:05.138Z,-0.90
2018-01-14T03:26:05.048Z,-0.90
2018-01-14T03:27:05.512Z,-0.90
2018-01-14T03:28:04.838Z,-0.90
2018-01-14T03:29:04.720Z,-0.90
2018-01-14T03:30:04.844Z,-0.90
2018-01-14T03:31:05.309Z,-0.90
2018-01-14T03:32:04.746Z,-0.90
2018-01-14T03:33:05.020Z,-0.90
2018-01-14T03:34:04.729Z,-0.90
2018-01-14T03:35:05.481Z,-0.90
2018-01-14T03:36:04.749Z,-0.90
2018-01-14T03:37:05.700Z,-0.90
2018-01-14T03:38:05.623Z,-0.90
2018-01-14T03:39:05.011Z,-0.90
2018-01-14T03:40:05.003Z,-0.90
2018-01-14T03:41:05.390Z,-0.90
2018-01-14T03:42:04.887Z,-0.90
2018-01-14T03:43:05.492Z,-0.90
2018-01-14T03:44:05.227Z,-0.80
2018-01-14T03:45:04.829Z,-0.90
2018-01-14T03:46:04.926Z,-0.90
2018-01-14T03:47:05.132Z,-0.90
2018-01-14T03:48:05.377Z,-0.90
2018-01-14T03:49:04.870Z,-0.80
2018-01-14T03:50:04.938Z,-0.90
2018-01-14T03:51:05.557Z,-0.80
2018-01-14T03:52:04.688Z,-0.80
2018-01-14T03:53:05.214Z,-0.80
2018-01-14T03:54:05.030Z,-0.80
2018-01-14T03:55:05.623Z,-0.90
2018-01-14T03:56:04.832Z,-0.80
2018-01-14T03:57:04.641Z,-0.80
2018-01-14T03:58:05.564Z,-0.80
2018-01-14T03:59:05.316Z,-0.80
2018-01-14T04:00:04.965Z,-0.80
2018-01-14T04:01:05.599Z,-0.80
2018-01-14T04:02:05.299Z,-0.80
2018-01-14T04:03:04.817Z,-0.80
2018-01-14T04:04:05.645Z,-0.80
2018-01-14T04:05:04.944Z,-0.80
2018-01-14T04:06:05.354Z,-0.80
2018-01-14T04:07:04.944Z,-0.80
2018-01-14T04:08:05.651Z,-0.80
2018-01-14T04:09:05.467Z,-0.80
2018-01-14T04:10:05.088Z,-0.80
2018-01-14T04:11:04.606Z,-0.80
2018-01-14T04:12:05.159Z,-0.80
2018-01-14T04:13:04.715Z,-0.80
2018-01-14T04:14:05.563Z,-0.80
2018-01-14T04:15:05.038Z,-0.80
2018-01-14T04:16:05.081Z,-0.80
2018-01-14T04:17:04.977Z,-0.80
2018-01-14T04:18:05.664Z,-0.80
2018-01-14T04:19:05.508Z,-0.80
2018-01-14T04:20:05.270Z,-0.80
2018-01-14T04:21:05.010Z,-0.80
2018-01-14T04:22:05.358Z,-0.80
2018-01-14T04:23:05.521Z,-0.80
2018-01-14T04:24:04.980Z,-0.80
2018-01-14T04:25:05.123Z,-0.80
2018-01-14T04:26:05.177Z,-0.80
2018-01-14T04:27:05.130Z,-0.80
2018-01-14T04:28:04.636Z,-0.80
2018-01-14T04:29:04.650Z,-0.80
2018-01-14T04:30:05.589Z,-0.80
2018-01-14T04:31:05.153Z,-0.80
2018-01-14T04:32:05.123Z,-0.80
2018-01-14T04:33:04.695Z,-0.80
2018-01-14T04:34:05.556Z,-0.80
2018-01-14T04:35:05.097Z,-0.80
2018-01-14T04:36:04.718Z,-0.80
2018-01-14T04:37:05.346Z,-0.80
2018-01-14T04:38:04.957Z,-0.80
2018-01-14T04:39:05.280Z,-0.80
2018-01-14T04:40:04.786Z,-0.80
2018-01-14T04:41:05.186Z,-0.80
2018-01-14T04:42:05.094Z,-0.80
2018-01-14T04:43:04.768Z,-0.80
2018-01-14T04:44:05.388Z,-0.80
2018-01-14T04:45:04.777Z,-0.80
2018-01-14T04:46:04.812Z,-0.80
2018-01-14T04:47:05.187Z,-0.80
2018-01-14T04:48:04.980Z,-0.80
2018-01-14T04:49:04.675Z,-0.80
2018-01-14T04:50:04.706Z,-0.80
2018-01-14T04:51:04.677Z,-0.80
2018-01-14T04:52:05.610Z,-0.80
2018-01-14T04:53:05.603Z,-0.80
2018-01-14T04:54:05.204Z,-0.80
2018-01-14T04:55:05.292Z,-0.80
2018-01-14T04:56:04.748Z,-0.70
2018-01-14T04:57:04.818Z,-0.70
2018-01-14T04:58:05.523Z,-0.70
2018-01-14T04:59:05.055Z,-0.70
2018-01-14T05:00:04.891Z,-0.70
2018-01-14T05:01:05.470Z,-0.70
2018-01-14T05:02:05.499Z,-0.70
2018-01-14T05:03:05.406Z,-0.70
2018-01-14T05:04:04.866Z,-0.70
2018-01-14T05:05:04.643Z,-0.70
2018-01-14T05:06:05.326Z,-0.70
2018-01-14T05:07:05.219Z,-0.70
2018-01-14T05:08:05.536Z,-0.70
2018-01-14T05:09:05.401Z,-0.70
2018-01-14T05:10:05.457Z,-0.70
2018-01-14T05:11:04.798Z,-0.70
2018-01-14T05:12:04.842Z,-0.70
2018-01-14T05:13:05.334Z,-0.70
2018-01-14T05:14:05.123Z,-0.70
2018-01-14T05:15:04.909Z,-0.70
2018-01-14T05:16:04.971Z,-0.70
2018-01-14T05:17:04.953Z,-0.70
2018-01-14T05:18:04.756Z,-0.70
2018-01-14T05:19:05.461Z,-0.70
2018-01-14T05:20:05.437Z,-0.70
2018-01-14T05:21:05.141Z,-0.70
2018-01-14T05:22:05.223Z,-0.70
2018-01-14T05:23:05.055Z,-0.70
2018-01-14T05:24:04.814Z,-0.70
2018-01-14T05:25:05.080Z,-0.70
2018-01-14T05:26:04.886Z,-0.70
2018-01-14T05:27:05.636Z,-0.70
2018-01-14T05:28:05.565Z,-0.70
2018-01-14T05:29:05.372Z,-0.70
2018-01-14T05:30:05.172Z,-0.70
2018-01-14T05:31:04.798Z,-0.70
2018-01-14T05:32:04.841Z,-0.70
2018-01-14T05:33:04.793Z,-0.70
2018-01-14T05:34:05.150Z,-0.60
2018-01-14T05:35:05.544Z,-0.70
2018-01-14T05:36:05.427Z,-0.70
2018-01-14T05:37:04.921Z,-0.70
2018-01-14T05:38:05.047Z,-0.70
2018-01-14T05:39:05.609Z,-0.70
2018-01-14T05:40:05.196Z,-0.70
2018-01-14T05:41:05.144Z,-0.70
2018-01-14T05:42:04.786Z,-0.70
2018-01-14T05:43:05.010Z,-0.60
2018-01-14T05:44:05.116Z,-0.70
2018-01-14T05:45:04.916Z,-0.70
2018-01-14T05:46:05.607Z,-0.70
2018-01-14T05:47:04.932Z,-0.70
2018-01-14T05:48:05.244Z,-0.70
2018-01-14T05:49:05.277Z,-0.70
2018-01-14T05:50:05.225Z,-0.60
2018-01-14T05:51:05.606Z,-0.70
2018-01-14T05:52:05.228Z,-0.70
2018-01-14T05:53:05.255Z,-0.70
2018-01-14T05:54:04.901Z,-0.60
2018-01-14T05:55:05.055Z,-0.60
2018-01-14T05:56:04.887Z,-0.60
2018-01-14T05:57:04.900Z,-0.70
2018-01-14T05:58:05.476Z,-0.60
2018-01-14T05:59:04.847Z,-0.60
2018-01-14T06:00:04.880Z,-0.60
2018-01-14T06:01:04.919Z,-0.70
2018-01-14T06:02:04.938Z,-0.60
2018-01-14T06:03:04.923Z,-0.60
2018-01-14T06:04:04.826Z,-0.60
2018-01-14T06:05:04.706Z,-0.60
2018-01-14T06:06:05.163Z,-0.60
2018-01-14T06:07:05.587Z,-0.60
2018-01-14T06:08:05.432Z,-0.60
2018-01-14T06:09:05.032Z,-0.60
2018-01-14T06:10:05.439Z,-0.60
2018-01-14T06:11:05.413Z,-0.60
2018-01-14T06:12:05.048Z,-0.60
2018-01-14T06:13:05.285Z,-0.60
2018-01-14T06:14:05.021Z,-0.60
2018-01-14T06:15:04.648Z,-0.60
2018-01-14T06:16:04.705Z,-0.60
2018-01-14T06:17:05.267Z,-0.60
2018-01-14T06:18:05.291Z,-0.60
2018-01-14T06:19:04.736Z,-0.60
2018-01-14T06:20:05.353Z,-0.60
2018-01-14T06:21:05.395Z,-0.60
2018-01-14T06:22:05.213Z,-0.60
2018-01-14T06:23:05.292Z,-0.60
2018-01-14T06:24:04.950Z,-0.60
2018-01-14T06:25:04.893Z,-0.60
2018-01-14T06:26:05.126Z,-0.60
2018-01-14T06:27:04.689Z,-0.60
2018-01-14T06:28:05.251Z,-0.60
2018-01-14T06:29:04.965Z,-0.60
2018-01-14T06:30:05.334Z,-0.60
2018-01-14T06:31:04.741Z,-0.60
2018-01-14T06:32:04.703Z,-0.60
2018-01-14T06:33:04.755Z,-0.60
2018-01-14T06:34:05.341Z,-0.60
2018-01-14T06:35:04.785Z,-0.60
2018-01-14T06:36:04.746Z,-0.60
2018-01-14T06:37:05.473Z,-0.60
2018-01-14T06:38:05.357Z,-0.60
2018-01-14T06:39:05.304Z,-0.60
2018-01-14T06:40:05.470Z,-0.60
2018-01-14T06:41:05.298Z,-0.60
2018-01-14T06:42:04.867Z,-0.60
2018-01-14T06:43:04.833Z,-0.60
2018-01-14T06:44:04.839Z,-0.60
2018-01-14T06:45:04.794Z,-0.60
2018-01-14T06:46:04.979Z,-0.60
2018-01-14T06:47:05.248Z,-0.60
2018-01-14T06:48:05.228Z,-0.60
2018-01-14T06:49:05.607Z,-0.60
2018-01-14T06:50:05.328Z,-0.60
2018-01-14T06:51:05.232Z,-0.60
2018-01-14T06:52:04.715Z,-0.60
2018-01-14T06:53:05.486Z,-0.60
2018-01-14T06:54:05.382Z,-0.60
2018-01-14T06:55:05.230Z,-0.60
2018-01-14T06:56:04.635Z,-0.60
2018-01-14T06:57:04.814Z,-0.60
2018-01-14T06:58:04.632Z,-0.60
2018-01-14T06:59:05.198Z,-0.60
2018-01-14T07:00:05.431Z,-0.60
2018-01-14T07:01:05.058Z,-0.60
2018-01-14T07:02:05.578Z,-0.60
2018-01-14T07:03:04.903Z,-0.60
2018-01-14T07:04:04.907Z,-0.60
2018-01-14T07:05:05.302Z,-0.60
2018-01-14T07:06:04.983Z,-0.60
2018-01-14T07:07:04.849Z,-0.60
2018-01-14T07:08:05.620Z,-0.60
2018-01-14T07:09:05.248Z,-0.60
2018-01-14T07:10:04.735Z,-0.60
2018-01-14T07:11:05.385Z,-0.60
2018-01-14T07:12:05.133Z,-0.50
2018-01-14T07:13:04.879Z,-0.50
2018-01-14T07:14:05.679Z,-0.60
2018-01-14T07:15:05.175Z,-0.60
2018-01-14T07:16:05.146Z,-0.60
2018-01-14T07:17:05.140Z,-0.50
2018-01-14T07:18:05.001Z,-0.50
2018-01-14T07:19:05.504Z,-0.50
2018-01-14T07:20:05.314Z,-0.50
2018-01-14T07:21:04.735Z,-0.50
2018-01-14T07:22:04.909Z,-0.50
2018-01-14T07:23:05.254Z,-0.50
2018-01-14T07:24:05.266Z,-0.50
2018-01-14T07:25:05.348Z,-0.50
2018-01-14T07:26:05.518Z,-0.50
2018-01-14T07:27:05.356Z,-0.50
2018-01-14T07:28:04.842Z,-0.50
2018-01-14T07:29:05.478Z,-0.50
2018-01-14T07:30:05.300Z,-0.50
2018-01-14T07:31:05.545Z,-0.50
2018-01-14T07:32:05.323Z,-0.50
2018-01-14T07:33:04.751Z,-0.50
2018-01-14T07:34:05.548Z,-0.50
2018-01-14T07:35:05.426Z,-0.50
2018-01-14T07:36:05.338Z,-0.50
2018-01-14T07:37:05.317Z,-0.50
2018-01-14T07:38:04.881Z,-0.50
2018-01-14T07:39:04.844Z,-0.50
2018-01-14T07:40:05.026Z,-0.50
2018-01-14T07:41:05.006Z,-0.50
2018-01-14T07:42:04.808Z,-0.50
2018-01-14T07:43:05.498Z,-0.50
2018-01-14T07:44:04.980Z,-0.50
2018-01-14T07:45:05.581Z,-0.50
2018-01-14T07:46:05.398Z,-0.50
2018-01-14T07:47:05.339Z,-0.50
2018-01-14T07:48:04.816Z,-0.50
2018-01-14T07:49:05.093Z,-0.50
2018-01-14T07:50:05.042Z,-0.50
2018-01-14T07:51:04.875Z,-0.50
2018-01-14T07:52:05.129Z,-0.50
2018-01-14T07:53:04.893Z,-0.50
2018-01-14T07:54:04.727Z,-0.50
2018-01-14T07:55:05.149Z,-0.50
2018-01-14T07:56:04.851Z,-0.50
2018-01-14T07:57:04.873Z,-0.50
2018-01-14T07:58:05.658Z,-0.40
2018-01-14T07:59:05.531Z,-0.40
2018-01-14T08:00:05.376Z,-0.40
2018-01-14T08:01:05.364Z,-0.40
2018-01-14T08:02:05.162Z,-0.40
2018-01-14T08:03:05.110Z,-0.40
2018-01-14T08:04:04.841Z,-0.40
2018-01-14T08:05:04.611Z,-0.40
2018-01-14T08:06:05.037Z,-0.40
2018-01-14T08:07:04.778Z,-0.40
2018-01-14T08:08:04.740Z,-0.40
2018-01-14T08:09:05.674Z,-0.40
2018-01-14T08:10:05.619Z,-0.40
2018-01-14T08:11:04.624Z,-0.40
2018-01-14T08:12:05.275Z,-0.40
2018-01-14T08:13:05.004Z,-0.40
2018-01-14T08:14:04.632Z,-0.40
2018-01-14T08:15:04.825Z,-0.40
2018-01-14T08:16:04.731Z,-0.40
2018-01-14T08:17:05.618Z,-0.30
2018-01-14T08:18:05.149Z,-0.30
2018-01-14T08:19:05.089Z,-0.30
2018-01-14T08:20:05.611Z,-0.30
2018-01-14T08:21:04.926Z,-0.30
2018-01-14T08:22:05.479Z,-0.30
2018-01-14T08:23:05.586Z,-0.30
2018-01-14T08:24:05.051Z,-0.30
2018-01-14T08:25:04.990Z,-0.30
2018-01-14T08:26:04.956Z,-0.30
2018-01-14T08:27:05.456Z,-0.30
2018-01-14T08:28:04.732Z,-0.30
2018-01-14T08:29:05.473Z,-0.20
2018-01-14T08:30:05.339Z,-0.20
2018-01-14T08:31:05.217Z,-0.20
2018-01-14T08:32:05.528Z,-0.20
2018-01-14T08:33:04.905Z,-0.20
2018-01-14T08:34:05.454Z,-0.20
2018-01-14T08:35:04.800Z,-0.20
2018-01-14T08:36:04.858Z,-0.20
2018-01-14T08:37:05.108Z,-0.20
2018-01-14T08:38:05.289Z,-0.20
2018-01-14T08:39:04.776Z,-0.10
2018-01-14T08:40:05.352Z,-0.10
2018-01-14T08:41:04.749Z,-0.10
2018-01-14T08:42:05.353Z,-0.10
2018-01-14T08:43:05.386Z,-0.10
2018-01-14T08:44:05.113Z,-0.10
2018-01-14T08:45:05.495Z,-0.10
2018-01-14T08:46:05.596Z,0.00
2018-01-14T08:47:05.361Z,0.00
2018-01-14T08:48:05.213Z,0.00
2018-01-14T08:49:05.574Z,0.00
2018-01-14T08:50:04.754Z,0.00
2018-01-14T08:51:05.199Z,0.00
2018-01-14T08:52:05.167Z,0.00
2018-01-14T08:53:05.330Z,0.00
2018-01-14T08:54:05.223Z,0.10
2018-01-14T08:55:04.750Z,0.10
2018-01-14T08:56:05.091Z,0.10
2018-01-14T08:57:06.261Z,0.10
2018-01-14T08:58:05.079Z,0.10
2018-01-14T08:59:05.335Z,0.10
2018-01-14T09:00:04.989Z,0.20
2018-01-14T09:01:04.933Z,0.20
2018-01-14T09:02:05.239Z,0.20
2018-01-14T09:03:05.136Z,0.20
2018-01-14T09:04:05.553Z,0.20
2018-01-14T09:05:05.424Z,0.20
2018-01-14T09:06:05.264Z,0.30
2018-01-14T09:07:05.678Z,0.30
2018-01-14T09:08:05.621Z,0.30
2018-01-14T09:09:04.842Z,0.30
2018-01-14T09:10:04.630Z,0.30
2018-01-14T09:11:05.740Z,0.30
2018-01-14T09:12:05.550Z,0.40
2018-01-14T09:13:04.702Z,0.40
2018-01-14T09:14:05.354Z,0.40
2018-01-14T09:15:05.300Z,0.40
2018-01-14T09:16:05.614Z,0.40
2018-01-14T09:17:05.424Z,0.50
2018-01-14T09:18:05.367Z,0.50
2018-01-14T09:19:05.534Z,0.50
2018-01-14T09:20:05.605Z,0.50
2018-01-14T09:21:05.579Z,0.50
2018-01-14T09:22:05.053Z,0.50
2018-01-14T09:23:05.025Z,0.60
2018-01-14T09:24:04.854Z,0.60
2018-01-14T09:25:04.865Z,0.60
2018-01-14T09:26:05.345Z,0.60
2018-01-14T09:27:04.747Z,0.60
2018-01-14T09:28:05.490Z,0.60
2018-01-14T09:29:04.916Z,0.70
2018-01-14T09:30:04.838Z,0.70
2018-01-14T09:31:04.802Z,0.70
2018-01-14T09:32:04.872Z,0.70
2018-01-14T09:33:04.717Z,0.70
2018-01-14T09:34:04.608Z,0.70
2018-01-14T09:35:05.182Z,0.70
2018-01-14T09:36:04.652Z,0.70
2018-01-14T09:37:05.485Z,0.70
2018-01-14T09:38:04.592Z,0.70
2018-01-14T09:39:05.180Z,0.80
2018-01-14T09:40:05.039Z,0.80
2018-01-14T09:41:05.621Z,0.80
2018-01-14T09:42:05.481Z,0.80
2018-01-14T09:43:05.106Z,0.80
2018-01-14T09:44:05.469Z,0.80
2018-01-14T09:45:05.304Z,0.80
2018-01-14T09:46:04.642Z,0.80
2018-01-14T09:47:05.212Z,0.80
2018-01-14T09:48:04.873Z,0.80
2018-01-14T09:49:04.967Z,0.90
2018-01-14T09:50:05.338Z,0.80
2018-01-14T09:51:04.935Z,0.90
2018-01-14T09:52:05.487Z,0.90
2018-01-14T09:53:05.451Z,0.90
2018-01-14T09:54:04.838Z,0.90
2018-01-14T09:55:04.744Z,0.90
2018-01-14T09:56:05.577Z,0.90
2018-01-14T09:57:05.487Z,0.90
2018-01-14T09:58:05.015Z,0.90
2018-01-14T09:59:05.030Z,0.90
2018-01-14T10:00:05.260Z,0.90
2018-01-14T10:01:04.871Z,0.90
2018-01-14T10:02:05.468Z,0.90
2018-01-14T10:03:05.543Z,0.90
2018-01-14T10:04:05.629Z,0.90
2018-01-14T10:05:04.974Z,1.00
2018-01-14T10:06:04.754Z,1.00
2018-01-14T10:07:04.717Z,1.00
2018-01-14T10:08:04.673Z,1.00
2018-01-14T10:09:05.020Z,1.00
2018-01-14T10:10:05.085Z,1.00
2018-01-14T10:11:05.684Z,1.00
2018-01-14T10:12:04.652Z,1.00
2018-01-14T10:13:05.124Z,1.00
2018-01-14T10:14:04.844Z,1.00
2018-01-14T10:15:04.758Z,1.00
2018-01-14T10:16:05.472Z,1.00
2018-01-14T10:17:05.243Z,1.00
2018-01-14T10:18:05.366Z,1.00
2018-01-14T10:19:05.394Z,1.00
2018-01-14T10:20:05.161Z,1.00
2018-01-14T10:21:04.987Z,1.00
2018-01-14T10:22:04.794Z,1.00
2018-01-14T10:23:05.364Z,1.00
2018-01-14T10:24:05.103Z,1.00
2018-01-14T10:25:05.242Z,1.10
2018-01-14T10:26:05.501Z,1.10
2018-01-14T10:27:04.683Z,1.10
2018-01-14T10:28:05.410Z,1.10
2018-01-14T10:29:04.866Z,1.10
2018-01-14T10:30:05.628Z,1.10
2018-01-14T10:31:05.260Z,1.10
2018-01-14T10:32:05.294Z,1.10
2018-01-14T10:33:05.479Z,1.10
2018-01-14T10:34:04.854Z,1.10
2018-01-14T10:35:04.654Z,1.10
2018-01-14T10:36:04.640Z,1.10
2018-01-14T10:37:05.440Z,1.10
2018-01-14T10:38:05.419Z,1.20
2018-01-14T10:39:05.054Z,1.20
2018-01-14T10:40:05.089Z,1.20
2018-01-14T10:41:05.610Z,1.20
2018-01-14T10:42:05.331Z,1.20
2018-01-14T10:43:05.141Z,1.20
2018-01-14T10:44:05.533Z,1.30
2018-01-14T10:45:05.399Z,1.30
2018-01-14T10:46:05.448Z,1.30
2018-01-14T10:47:04.809Z,1.30
2018-01-14T10:48:05.537Z,1.30
2018-01-14T10:49:05.581Z,1.30
2018-01-14T10:50:05.302Z,1.30
2018-01-14T10:51:05.010Z,1.30
2018-01-14T10:52:05.107Z,1.40
2018-01-14T10:53:04.800Z,1.40
2018-01-14T10:54:05.141Z,1.40
2018-01-14T10:55:05.004Z,1.40
2018-01-14T10:56:05.160Z,1.40
2018-01-14T10:57:04.939Z,1.40
2018-01-14T10:58:05.644Z,1.40
2018-01-14T10:59:05.513Z,1.40
2018-01-14T11:00:05.365Z,1.40
2018-01-14T11:01:05.352Z,1.40
2018-01-14T11:02:05.067Z,1.40
2018-01-14T11:03:05.014Z,1.40
2018-01-14T11:04:04.779Z,1.50
2018-01-14T11:05:04.905Z,1.50
2018-01-14T11:06:04.748Z,1.50
2018-01-14T11:07:05.573Z,1.50
2018-01-14T11:08:05.230Z,1.50
2018-01-14T11:09:05.215Z,1.50
2018-01-14T11:10:05.013Z,1.50
2018-01-14T11:11:05.052Z,1.50
2018-01-14T11:12:05.122Z,1.50
2018-01-14T11:13:04.894Z,1.60
2018-01-14T11:14:05.208Z,1.60
2018-01-14T11:15:05.260Z,1.60
2018-01-14T11:16:04.924Z,1.60
2018-01-14T11:17:05.484Z,1.60
2018-01-14T11:18:05.164Z,1.70
2018-01-14T11:19:05.555Z,1.70
2018-01-14T11:20:05.066Z,1.70
2018-01-14T11:21:05.580Z,1.70
2018-01-14T11:22:04.884Z,1.70
2018-01-14T11:23:04.655Z,1.80
2018-01-14T11:24:04.860Z,1.80
2018-01-14T11:25:05.544Z,1.80
2018-01-14T11:26:05.181Z,1.80
2018-01-14T11:27:05.550Z,1.80
2018-01-14T11:28:05.472Z,1.80
2018-01-14T11:29:05.242Z,1.90
2018-01-14T11:30:05.116Z,1.90
2018-01-14T11:31:04.682Z,1.90
2018-01-14T11:32:05.620Z,1.90
2018-01-14T11:33:04.868Z,1.90
2018-01-14T11:34:05.621Z,1.90
2018-01-14T11:35:05.341Z,2.00
2018-01-14T11:36:04.842Z,2.00
2018-01-14T11:37:05.628Z,2.00
2018-01-14T11:38:05.076Z,2.10
2018-01-14T11:39:04.814Z,2.10
2018-01-14T11:40:04.720Z,2.10
2018-01-14T11:41:05.170Z,2.10
2018-01-14T11:42:05.060Z,2.20
2018-01-14T11:43:04.897Z,2.20
2018-01-14T11:44:05.313Z,2.20
2018-01-14T11:45:05.157Z,2.20
2018-01-14T11:46:05.447Z,2.30
2018-01-14T11:47:05.344Z,2.30
2018-01-14T11:48:05.553Z,2.30
2018-01-14T11:49:05.408Z,2.30
2018-01-14T11:50:05.388Z,2.40
2018-01-14T11:51:05.422Z,2.40
2018-01-14T11:52:05.120Z,2.40
2018-01-14T11:53:05.271Z,2.50
2018-01-14T11:54:05.000Z,2.50
2018-01-14T11:55:05.105Z,2.50
2018-01-14T11:56:05.174Z,2.50
2018-01-14T11:57:05.207Z,2.50
2018-01-14T11:58:05.244Z,2.60
2018-01-14T11:59:05.299Z,2.60
2018-01-14T12:00:05.360Z,2.60
2018-01-14T12:01:05.266Z,2.60
2018-01-14T12:02:05.095Z,2.60
2018-01-14T12:03:05.165Z,2.60
2018-01-14T12:04:04.978Z,2.60
2018-01-14T12:05:05.398Z,2.60
2018-01-14T12:06:05.062Z,2.60
2018-01-14T12:07:05.089Z,2.60
2018-01-14T12:08:05.332Z,2.60
2018-01-14T12:09:05.208Z,2.50
2018-01-14T12:10:05.209Z,2.50
2018-01-14T12:11:04.793Z,2.50
2018-01-14T12:12:05.346Z,2.50
2018-01-14T12:13:04.759Z,2.50
2018-01-14T12:14:05.498Z,2.40
2018-01-14T12:15:05.524Z,2.40
2018-01-14T12:16:05.310Z,2.40
2018-01-14T12:17:05.265Z,2.40
2018-01-14T12:18:05.066Z,2.30
2018-01-14T12:19:04.673Z,2.30
2018-01-14T12:20:05.663Z,2.30
2018-01-14T12:21:05.341Z,2.30
2018-01-14T12:22:10.090Z,2.30
2018-01-14T12:23:05.248Z,2.20
2018-01-14T12:24:04.954Z,2.20
2018-01-14T12:25:04.840Z,2.20
2018-01-14T12:26:05.462Z,2.20
2018-01-14T12:27:05.512Z,2.20
2018-01-14T12:28:05.511Z,2.20
2018-01-14T12:29:05.296Z,2.10
2018-01-14T12:30:05.069Z,2.10
2018-01-14T12:31:04.975Z,2.10
2018-01-14T12:32:05.140Z,2.10
2018-01-14T12:33:05.540Z,2.10
2018-01-14T12:34:04.824Z,2.10
2018-01-14T12:35:05.238Z,2.10
2018-01-14T12:36:05.593Z,2.10
2018-01-14T12:37:05.463Z,2.10
2018-01-14T12:38:04.834Z,2.10
2018-01-14T12:39:04.838Z,2.10
2018-01-14T12:40:05.466Z,2.10
2018-01-14T12:41:05.388Z,2.10
2018-01-14T12:42:05.365Z,2.10
2018-01-14T12:43:04.930Z,2.10
2018-01-14T12:44:05.119Z,2.10
2018-01-14T12:45:04.905Z,2.00
2018-01-14T12:46:04.597Z,2.00
2018-01-14T12:47:04.952Z,2.00
2018-01-14T12:48:05.436Z,2.00
2018-01-14T12:49:04.856Z,2.00
2018-01-14T12:50:05.342Z,2.00
2018-01-14T12:51:04.760Z,2.00
2018-01-14T12:52:05.634Z,2.00
2018-01-14T12:53:05.044Z,2.00
2018-01-14T12:54:04.945Z,2.00
2018-01-14T12:55:05.588Z,1.90
2018-01-14T12:56:05.194Z,2.00
2018-01-14T12:57:04.961Z,1.90
2018-01-14T12:58:04.866Z,1.90
2018-01-14T12:59:04.924Z,1.90
2018-01-14T13:00:04.884Z,1.90